sensor_id;sensor_type;location;lat;lon;timestamp;temperature;humidity
4461;DHT22;2243;48.812;9.232;2023-02-01T00:00:43;5.30;99.90
4461;DHT22;2243;48.812;9.232;2023-02-01T00:03:14;5.30;99.90
4461;DHT22;2243;48.812;9.232;2023-02-01T00:05:55;5.30;99.90
4461;DHT22;2243;48.812;9.232;2023-02-01T00:08:27;5.30;99.90
4461;DHT22;2243;48.812;9.232;2023-02-01T00:11:07;5.20;99.90
4461;DHT22;2243;48.812;9.232;2023-02-01T00:13:40;5.30;99.90
4461;DHT22;2243;48.812;9.232;2023-02-01T00:19:00;5.30;99.90
4461;DHT22;2243;48.812;9.232;2023-02-01T00:21:35;5.30;99.90
4461;DHT22;2243;48.812;9.232;2023-02-01T00:24:08;5.10;99.90
4461;DHT22;2243;48.812;9.232;2023-02-01T00:26:43;5.20;99.90
4461;DHT22;2243;48.812;9.232;2023-02-01T00:29:18;5.20;99.90
4461;DHT22;2243;48.812;9.232;2023-02-01T00:31:51;5.00;99.90
4461;DHT22;2243;48.812;9.232;2023-02-01T00:34:23;5.10;99.90
4461;DHT22;2243;48.812;9.232;2023-02-01T00:36:54;5.10;99.90
4461;DHT22;2243;48.812;9.232;2023-02-01T00:39:25;5.20;99.90
4461;DHT22;2243;48.812;9.232;2023-02-01T00:41:56;5.10;99.90
4461;DHT22;2243;48.812;9.232;2023-02-01T00:44:27;5.10;99.90
4461;DHT22;2243;48.812;9.232;2023-02-01T00:46:58;5.10;99.90
4461;DHT22;2243;48.812;9.232;2023-02-01T00:49:31;5.10;99.90
4461;DHT22;2243;48.812;9.232;2023-02-01T00:52:03;5.10;99.90
4461;DHT22;2243;48.812;9.232;2023-02-01T00:54:34;5.10;99.90
4461;DHT22;2243;48.812;9.232;2023-02-01T00:57:06;5.10;99.90
4461;DHT22;2243;48.812;9.232;2023-02-01T00:59:37;5.10;99.90
4461;DHT22;2243;48.812;9.232;2023-02-01T01:02:08;5.10;99.90
4461;DHT22;2243;48.812;9.232;2023-02-01T01:04:39;5.10;99.90
4461;DHT22;2243;48.812;9.232;2023-02-01T01:07:10;5.10;99.90
4461;DHT22;2243;48.812;9.232;2023-02-01T01:09:41;5.20;99.90
4461;DHT22;2243;48.812;9.232;2023-02-01T01:12:12;5.10;99.90
4461;DHT22;2243;48.812;9.232;2023-02-01T01:14:43;5.10;99.90
4461;DHT22;2243;48.812;9.232;2023-02-01T01:17:13;5.10;99.90
4461;DHT22;2243;48.812;9.232;2023-02-01T01:19:44;5.10;99.90
4461;DHT22;2243;48.812;9.232;2023-02-01T01:22:15;5.10;99.90
4461;DHT22;2243;48.812;9.232;2023-02-01T01:24:46;5.00;99.90
4461;DHT22;2243;48.812;9.232;2023-02-01T01:27:17;5.00;99.90
4461;DHT22;2243;48.812;9.232;2023-02-01T01:29:53;5.00;99.90
4461;DHT22;2243;48.812;9.232;2023-02-01T01:32:24;5.00;99.90
4461;DHT22;2243;48.812;9.232;2023-02-01T01:34:55;5.00;99.90
4461;DHT22;2243;48.812;9.232;2023-02-01T01:37:26;5.00;99.90
4461;DHT22;2243;48.812;9.232;2023-02-01T01:39:57;5.00;99.90
4461;DHT22;2243;48.812;9.232;2023-02-01T01:42:28;5.00;99.90
4461;DHT22;2243;48.812;9.232;2023-02-01T01:45:06;5.10;99.90
4461;DHT22;2243;48.812;9.232;2023-02-01T01:47:43;5.10;99.90
4461;DHT22;2243;48.812;9.232;2023-02-01T01:50:19;5.10;99.90
4461;DHT22;2243;48.812;9.232;2023-02-01T01:52:56;5.10;99.90
4461;DHT22;2243;48.812;9.232;2023-02-01T01:55:32;5.20;99.90
4461;DHT22;2243;48.812;9.232;2023-02-01T01:58:10;5.10;99.90
4461;DHT22;2243;48.812;9.232;2023-02-01T02:00:44;5.20;99.90
4461;DHT22;2243;48.812;9.232;2023-02-01T02:03:31;5.10;99.90
4461;DHT22;2243;48.812;9.232;2023-02-01T02:06:22;5.20;99.90
4461;DHT22;2243;48.812;9.232;2023-02-01T02:08:58;5.20;99.90
4461;DHT22;2243;48.812;9.232;2023-02-01T02:11:29;5.20;99.90
4461;DHT22;2243;48.812;9.232;2023-02-01T02:14:01;5.20;99.90
4461;DHT22;2243;48.812;9.232;2023-02-01T02:37:37;5.40;99.90
4461;DHT22;2243;48.812;9.232;2023-02-01T02:40:21;5.40;99.90
4461;DHT22;2243;48.812;9.232;2023-02-01T02:46:05;5.30;99.90
4461;DHT22;2243;48.812;9.232;2023-02-01T02:49:27;5.30;99.90
4461;DHT22;2243;48.812;9.232;2023-02-01T02:52:17;5.40;99.90
4461;DHT22;2243;48.812;9.232;2023-02-01T02:55:11;5.40;99.90
4461;DHT22;2243;48.812;9.232;2023-02-01T02:57:44;5.40;99.90
4461;DHT22;2243;48.812;9.232;2023-02-01T03:00:35;5.40;99.90
4461;DHT22;2243;48.812;9.232;2023-02-01T03:03:25;5.30;99.90
4461;DHT22;2243;48.812;9.232;2023-02-01T03:06:16;5.40;99.90
4461;DHT22;2243;48.812;9.232;2023-02-01T03:08:49;5.30;99.90
4461;DHT22;2243;48.812;9.232;2023-02-01T03:11:24;5.40;99.90
4461;DHT22;2243;48.812;9.232;2023-02-01T03:14:18;5.40;99.90
4461;DHT22;2243;48.812;9.232;2023-02-01T03:16:58;5.40;99.90
4461;DHT22;2243;48.812;9.232;2023-02-01T03:19:39;5.40;99.90
4461;DHT22;2243;48.812;9.232;2023-02-01T03:22:17;5.40;99.90
4461;DHT22;2243;48.812;9.232;2023-02-01T03:24:54;5.40;99.90
4461;DHT22;2243;48.812;9.232;2023-02-01T03:27:35;5.40;99.90
4461;DHT22;2243;48.812;9.232;2023-02-01T03:30:23;5.40;99.90
4461;DHT22;2243;48.812;9.232;2023-02-01T03:32:59;5.40;99.90
4461;DHT22;2243;48.812;9.232;2023-02-01T03:38:38;5.30;99.90
4461;DHT22;2243;48.812;9.232;2023-02-01T03:41:27;5.30;99.90
4461;DHT22;2243;48.812;9.232;2023-02-01T03:44:20;5.40;99.90
4461;DHT22;2243;48.812;9.232;2023-02-01T03:47:03;5.30;99.90
4461;DHT22;2243;48.812;9.232;2023-02-01T03:49:44;5.30;99.90
4461;DHT22;2243;48.812;9.232;2023-02-01T03:52:22;5.30;99.90
4461;DHT22;2243;48.812;9.232;2023-02-01T03:54:57;5.40;99.90
4461;DHT22;2243;48.812;9.232;2023-02-01T03:57:32;5.40;99.90
4461;DHT22;2243;48.812;9.232;2023-02-01T04:00:09;5.40;99.90
4461;DHT22;2243;48.812;9.232;2023-02-01T04:02:49;5.40;99.90
4461;DHT22;2243;48.812;9.232;2023-02-01T04:05:21;5.40;99.90
4461;DHT22;2243;48.812;9.232;2023-02-01T04:07:52;5.40;99.90
4461;DHT22;2243;48.812;9.232;2023-02-01T04:10:25;5.40;99.90
4461;DHT22;2243;48.812;9.232;2023-02-01T04:12:56;5.40;99.90
4461;DHT22;2243;48.812;9.232;2023-02-01T04:15:27;5.50;99.90
4461;DHT22;2243;48.812;9.232;2023-02-01T04:17:57;5.50;99.90
4461;DHT22;2243;48.812;9.232;2023-02-01T04:20:28;5.50;99.90
4461;DHT22;2243;48.812;9.232;2023-02-01T04:22:59;5.50;99.90
4461;DHT22;2243;48.812;9.232;2023-02-01T04:25:33;5.50;99.90
4461;DHT22;2243;48.812;9.232;2023-02-01T04:28:04;5.50;99.90
4461;DHT22;2243;48.812;9.232;2023-02-01T04:30:35;5.50;99.90
4461;DHT22;2243;48.812;9.232;2023-02-01T04:33:06;5.50;99.90
4461;DHT22;2243;48.812;9.232;2023-02-01T04:35:38;5.50;99.90
4461;DHT22;2243;48.812;9.232;2023-02-01T04:38:09;5.40;99.90
4461;DHT22;2243;48.812;9.232;2023-02-01T04:40:40;5.40;99.90
4461;DHT22;2243;48.812;9.232;2023-02-01T04:43:11;5.40;99.90
4461;DHT22;2243;48.812;9.232;2023-02-01T04:45:46;5.40;99.90
4461;DHT22;2243;48.812;9.232;2023-02-01T04:48:18;5.30;99.90
4461;DHT22;2243;48.812;9.232;2023-02-01T04:50:49;5.40;99.90
4461;DHT22;2243;48.812;9.232;2023-02-01T04:53:20;5.30;99.90
4461;DHT22;2243;48.812;9.232;2023-02-01T04:55:51;5.30;99.90
4461;DHT22;2243;48.812;9.232;2023-02-01T04:58:22;5.30;99.90
4461;DHT22;2243;48.812;9.232;2023-02-01T05:00:53;5.40;99.90
4461;DHT22;2243;48.812;9.232;2023-02-01T05:03:24;5.40;99.90
4461;DHT22;2243;48.812;9.232;2023-02-01T05:05:55;5.40;99.90
4461;DHT22;2243;48.812;9.232;2023-02-01T05:08:27;5.40;99.90
4461;DHT22;2243;48.812;9.232;2023-02-01T05:10:59;5.40;99.90
4461;DHT22;2243;48.812;9.232;2023-02-01T05:13:32;5.40;99.90
4461;DHT22;2243;48.812;9.232;2023-02-01T05:16:18;5.40;99.90
4461;DHT22;2243;48.812;9.232;2023-02-01T05:18:52;5.40;99.90
4461;DHT22;2243;48.812;9.232;2023-02-01T05:21:24;5.40;99.90
4461;DHT22;2243;48.812;9.232;2023-02-01T05:23:55;5.50;99.90
4461;DHT22;2243;48.812;9.232;2023-02-01T05:26:43;5.50;99.90
4461;DHT22;2243;48.812;9.232;2023-02-01T05:29:17;5.50;99.90
4461;DHT22;2243;48.812;9.232;2023-02-01T05:31:48;5.60;99.90
4461;DHT22;2243;48.812;9.232;2023-02-01T05:34:20;5.60;99.90
4461;DHT22;2243;48.812;9.232;2023-02-01T05:36:51;5.60;99.90
4461;DHT22;2243;48.812;9.232;2023-02-01T05:39:22;5.60;99.90
4461;DHT22;2243;48.812;9.232;2023-02-01T05:41:53;5.50;99.90
4461;DHT22;2243;48.812;9.232;2023-02-01T05:44:24;5.60;99.90
4461;DHT22;2243;48.812;9.232;2023-02-01T05:46:55;5.60;99.90
4461;DHT22;2243;48.812;9.232;2023-02-01T05:49:26;5.60;99.90
4461;DHT22;2243;48.812;9.232;2023-02-01T05:51:57;5.60;99.90
4461;DHT22;2243;48.812;9.232;2023-02-01T05:54:30;5.70;99.90
4461;DHT22;2243;48.812;9.232;2023-02-01T05:57:01;5.60;99.90
4461;DHT22;2243;48.812;9.232;2023-02-01T05:59:32;5.60;99.90
4461;DHT22;2243;48.812;9.232;2023-02-01T06:02:03;5.60;99.90
4461;DHT22;2243;48.812;9.232;2023-02-01T06:04:34;5.60;99.90
4461;DHT22;2243;48.812;9.232;2023-02-01T06:07:06;5.50;99.90
4461;DHT22;2243;48.812;9.232;2023-02-01T06:09:39;5.50;99.90
4461;DHT22;2243;48.812;9.232;2023-02-01T06:12:10;5.50;99.90
4461;DHT22;2243;48.812;9.232;2023-02-01T06:14:40;5.50;99.90
4461;DHT22;2243;48.812;9.232;2023-02-01T06:17:13;5.40;99.90
4461;DHT22;2243;48.812;9.232;2023-02-01T06:19:44;5.50;99.90
4461;DHT22;2243;48.812;9.232;2023-02-01T06:22:15;5.40;99.90
4461;DHT22;2243;48.812;9.232;2023-02-01T06:24:46;5.50;99.90
4461;DHT22;2243;48.812;9.232;2023-02-01T06:27:18;5.50;99.90
4461;DHT22;2243;48.812;9.232;2023-02-01T06:29:52;5.40;99.90
4461;DHT22;2243;48.812;9.232;2023-02-01T06:32:22;5.50;99.90
4461;DHT22;2243;48.812;9.232;2023-02-01T06:34:54;5.50;99.90
4461;DHT22;2243;48.812;9.232;2023-02-01T06:37:26;5.60;99.90
4461;DHT22;2243;48.812;9.232;2023-02-01T06:39:59;5.70;99.90
4461;DHT22;2243;48.812;9.232;2023-02-01T06:42:31;5.70;99.90
4461;DHT22;2243;48.812;9.232;2023-02-01T06:45:02;5.70;99.90
4461;DHT22;2243;48.812;9.232;2023-02-01T06:47:40;5.60;99.90
4461;DHT22;2243;48.812;9.232;2023-02-01T06:50:12;5.70;99.90
4461;DHT22;2243;48.812;9.232;2023-02-01T06:52:48;5.70;99.90
4461;DHT22;2243;48.812;9.232;2023-02-01T06:55:19;5.70;99.90
4461;DHT22;2243;48.812;9.232;2023-02-01T06:57:54;5.70;99.90
4461;DHT22;2243;48.812;9.232;2023-02-01T07:00:29;5.70;99.90
4461;DHT22;2243;48.812;9.232;2023-02-01T07:03:00;5.80;99.90
4461;DHT22;2243;48.812;9.232;2023-02-01T07:05:32;5.80;99.90
4461;DHT22;2243;48.812;9.232;2023-02-01T07:08:04;5.80;99.90
4461;DHT22;2243;48.812;9.232;2023-02-01T07:10:35;5.80;99.90
4461;DHT22;2243;48.812;9.232;2023-02-01T07:13:06;5.80;99.90
4461;DHT22;2243;48.812;9.232;2023-02-01T07:15:37;5.90;99.90
4461;DHT22;2243;48.812;9.232;2023-02-01T07:18:08;6.00;99.90
4461;DHT22;2243;48.812;9.232;2023-02-01T07:20:40;6.00;99.90
4461;DHT22;2243;48.812;9.232;2023-02-01T07:23:11;6.10;99.90
4461;DHT22;2243;48.812;9.232;2023-02-01T07:25:42;6.10;99.90
4461;DHT22;2243;48.812;9.232;2023-02-01T07:28:13;6.10;99.90
4461;DHT22;2243;48.812;9.232;2023-02-01T07:30:44;6.00;99.90
4461;DHT22;2243;48.812;9.232;2023-02-01T07:33:25;6.10;99.90
4461;DHT22;2243;48.812;9.232;2023-02-01T07:36:00;6.10;99.90
4461;DHT22;2243;48.812;9.232;2023-02-01T07:38:33;6.20;99.90
4461;DHT22;2243;48.812;9.232;2023-02-01T07:41:05;6.20;99.90
4461;DHT22;2243;48.812;9.232;2023-02-01T07:43:36;6.20;99.90
4461;DHT22;2243;48.812;9.232;2023-02-01T07:46:07;6.30;99.90
4461;DHT22;2243;48.812;9.232;2023-02-01T07:48:40;6.20;99.90
4461;DHT22;2243;48.812;9.232;2023-02-01T07:51:14;6.30;99.90
4461;DHT22;2243;48.812;9.232;2023-02-01T07:53:45;6.30;99.90
4461;DHT22;2243;48.812;9.232;2023-02-01T07:56:19;6.30;99.90
4461;DHT22;2243;48.812;9.232;2023-02-01T07:58:51;6.30;99.90
4461;DHT22;2243;48.812;9.232;2023-02-01T08:01:25;6.30;99.90
4461;DHT22;2243;48.812;9.232;2023-02-01T08:03:59;6.40;99.90
4461;DHT22;2243;48.812;9.232;2023-02-01T08:06:33;6.40;99.90
4461;DHT22;2243;48.812;9.232;2023-02-01T08:09:06;6.40;99.90
4461;DHT22;2243;48.812;9.232;2023-02-01T08:11:41;6.40;99.90
4461;DHT22;2243;48.812;9.232;2023-02-01T08:14:12;6.40;99.90
4461;DHT22;2243;48.812;9.232;2023-02-01T08:16:43;6.40;99.90
4461;DHT22;2243;48.812;9.232;2023-02-01T08:19:14;6.40;99.90
4461;DHT22;2243;48.812;9.232;2023-02-01T08:21:45;6.50;99.90
4461;DHT22;2243;48.812;9.232;2023-02-01T08:24:19;6.60;99.90
4461;DHT22;2243;48.812;9.232;2023-02-01T08:26:50;6.60;99.90
4461;DHT22;2243;48.812;9.232;2023-02-01T08:29:21;6.60;99.90
4461;DHT22;2243;48.812;9.232;2023-02-01T08:31:52;6.60;99.90
4461;DHT22;2243;48.812;9.232;2023-02-01T08:34:24;6.60;99.90
4461;DHT22;2243;48.812;9.232;2023-02-01T08:36:55;6.70;99.90
4461;DHT22;2243;48.812;9.232;2023-02-01T08:39:30;6.70;99.90
4461;DHT22;2243;48.812;9.232;2023-02-01T08:42:01;6.80;99.90
4461;DHT22;2243;48.812;9.232;2023-02-01T08:44:50;6.80;99.90
4461;DHT22;2243;48.812;9.232;2023-02-01T08:47:22;6.80;99.90
4461;DHT22;2243;48.812;9.232;2023-02-01T08:49:53;7.00;99.90
4461;DHT22;2243;48.812;9.232;2023-02-01T08:52:24;7.10;99.90
4461;DHT22;2243;48.812;9.232;2023-02-01T08:54:57;7.20;99.90
4461;DHT22;2243;48.812;9.232;2023-02-01T08:57:28;7.10;99.90
4461;DHT22;2243;48.812;9.232;2023-02-01T08:59:59;7.10;99.90
4461;DHT22;2243;48.812;9.232;2023-02-01T09:02:30;7.00;99.90
4461;DHT22;2243;48.812;9.232;2023-02-01T09:05:02;7.00;99.90
4461;DHT22;2243;48.812;9.232;2023-02-01T09:07:34;6.90;99.90
4461;DHT22;2243;48.812;9.232;2023-02-01T09:10:06;6.90;99.90
4461;DHT22;2243;48.812;9.232;2023-02-01T09:12:37;6.90;99.90
4461;DHT22;2243;48.812;9.232;2023-02-01T09:15:08;6.90;99.90
4461;DHT22;2243;48.812;9.232;2023-02-01T09:17:39;6.80;99.90
4461;DHT22;2243;48.812;9.232;2023-02-01T09:20:12;6.80;99.90
4461;DHT22;2243;48.812;9.232;2023-02-01T09:22:43;6.90;99.90
4461;DHT22;2243;48.812;9.232;2023-02-01T09:25:14;6.90;99.90
4461;DHT22;2243;48.812;9.232;2023-02-01T09:27:45;6.90;99.90
4461;DHT22;2243;48.812;9.232;2023-02-01T09:30:16;6.90;99.90
4461;DHT22;2243;48.812;9.232;2023-02-01T09:32:50;6.90;99.90
4461;DHT22;2243;48.812;9.232;2023-02-01T09:35:21;6.90;99.90
4461;DHT22;2243;48.812;9.232;2023-02-01T09:37:53;7.00;99.90
4461;DHT22;2243;48.812;9.232;2023-02-01T09:40:24;7.00;99.90
4461;DHT22;2243;48.812;9.232;2023-02-01T09:43:37;7.00;99.90
4461;DHT22;2243;48.812;9.232;2023-02-01T09:46:42;7.00;99.90
4461;DHT22;2243;48.812;9.232;2023-02-01T09:49:21;7.00;99.90
4461;DHT22;2243;48.812;9.232;2023-02-01T09:52:00;7.10;99.90
4461;DHT22;2243;48.812;9.232;2023-02-01T09:54:42;7.10;99.90
4461;DHT22;2243;48.812;9.232;2023-02-01T09:57:40;7.10;99.90
4461;DHT22;2243;48.812;9.232;2023-02-01T10:00:22;7.10;99.90
4461;DHT22;2243;48.812;9.232;2023-02-01T10:02:57;7.10;99.90
4461;DHT22;2243;48.812;9.232;2023-02-01T10:05:39;7.10;99.90
4461;DHT22;2243;48.812;9.232;2023-02-01T10:12:15;7.10;99.90
4461;DHT22;2243;48.812;9.232;2023-02-01T10:21:19;7.00;99.90
4461;DHT22;2243;48.812;9.232;2023-02-01T10:27:20;7.20;99.90
4461;DHT22;2243;48.812;9.232;2023-02-01T10:29:59;7.20;99.90
4461;DHT22;2243;48.812;9.232;2023-02-01T10:32:38;7.20;99.90
4461;DHT22;2243;48.812;9.232;2023-02-01T10:35:18;7.20;99.90
4461;DHT22;2243;48.812;9.232;2023-02-01T10:37:58;7.30;99.90
4461;DHT22;2243;48.812;9.232;2023-02-01T10:40:32;7.30;99.90
4461;DHT22;2243;48.812;9.232;2023-02-01T10:43:04;7.30;99.90
4461;DHT22;2243;48.812;9.232;2023-02-01T10:45:35;7.40;99.90
4461;DHT22;2243;48.812;9.232;2023-02-01T10:48:09;7.30;99.90
4461;DHT22;2243;48.812;9.232;2023-02-01T10:50:59;7.40;99.90
4461;DHT22;2243;48.812;9.232;2023-02-01T10:53:39;7.30;99.90
4461;DHT22;2243;48.812;9.232;2023-02-01T10:56:25;7.30;99.90
4461;DHT22;2243;48.812;9.232;2023-02-01T10:59:17;7.30;99.90
4461;DHT22;2243;48.812;9.232;2023-02-01T11:01:51;7.40;99.90
4461;DHT22;2243;48.812;9.232;2023-02-01T11:04:34;7.40;99.90
4461;DHT22;2243;48.812;9.232;2023-02-01T11:07:13;7.40;99.90
4461;DHT22;2243;48.812;9.232;2023-02-01T11:09:50;7.40;99.90
4461;DHT22;2243;48.812;9.232;2023-02-01T11:12:32;7.40;99.90
4461;DHT22;2243;48.812;9.232;2023-02-01T11:17:44;7.40;99.90
4461;DHT22;2243;48.812;9.232;2023-02-01T11:20:39;7.40;99.90
4461;DHT22;2243;48.812;9.232;2023-02-01T11:23:16;7.40;99.90
4461;DHT22;2243;48.812;9.232;2023-02-01T11:25:53;7.40;99.90
4461;DHT22;2243;48.812;9.232;2023-02-01T11:28:33;7.30;99.90
4461;DHT22;2243;48.812;9.232;2023-02-01T11:31:10;7.30;99.90
4461;DHT22;2243;48.812;9.232;2023-02-01T11:33:49;7.30;99.90
4461;DHT22;2243;48.812;9.232;2023-02-01T11:36:26;7.30;99.90
4461;DHT22;2243;48.812;9.232;2023-02-01T11:39:18;7.30;99.90
4461;DHT22;2243;48.812;9.232;2023-02-01T11:42:16;7.30;99.90
4461;DHT22;2243;48.812;9.232;2023-02-01T11:44:48;7.30;99.90
4461;DHT22;2243;48.812;9.232;2023-02-01T11:50:00;7.30;99.90
4461;DHT22;2243;48.812;9.232;2023-02-01T11:52:52;7.40;99.90
4461;DHT22;2243;48.812;9.232;2023-02-01T11:56:03;7.40;99.90
4461;DHT22;2243;48.812;9.232;2023-02-01T12:07:57;7.50;99.90
4461;DHT22;2243;48.812;9.232;2023-02-01T12:32:38;7.40;99.90
4461;DHT22;2243;48.812;9.232;2023-02-01T12:35:38;7.40;99.90
4461;DHT22;2243;48.812;9.232;2023-02-01T12:39:14;7.40;99.90
4461;DHT22;2243;48.812;9.232;2023-02-01T12:47:30;7.40;99.90
4461;DHT22;2243;48.812;9.232;2023-02-01T12:50:24;7.30;99.90
4461;DHT22;2243;48.812;9.232;2023-02-01T12:56:10;7.10;99.90
4461;DHT22;2243;48.812;9.232;2023-02-01T12:58:53;7.10;99.90
4461;DHT22;2243;48.812;9.232;2023-02-01T13:01:35;7.10;99.90
4461;DHT22;2243;48.812;9.232;2023-02-01T13:04:13;7.10;99.90
4461;DHT22;2243;48.812;9.232;2023-02-01T13:07:19;7.10;99.90
4461;DHT22;2243;48.812;9.232;2023-02-01T13:16:26;6.80;99.90
4461;DHT22;2243;48.812;9.232;2023-02-01T13:19:12;6.60;99.90
4461;DHT22;2243;48.812;9.232;2023-02-01T13:21:56;6.40;99.90
4461;DHT22;2243;48.812;9.232;2023-02-01T13:24:49;6.40;99.90
4461;DHT22;2243;48.812;9.232;2023-02-01T13:27:26;6.40;99.90
4461;DHT22;2243;48.812;9.232;2023-02-01T13:30:18;6.50;99.90
4461;DHT22;2243;48.812;9.232;2023-02-01T13:33:26;6.60;99.90
4461;DHT22;2243;48.812;9.232;2023-02-01T13:42:23;7.00;99.90
4461;DHT22;2243;48.812;9.232;2023-02-01T13:45:05;7.10;99.90
4461;DHT22;2243;48.812;9.232;2023-02-01T13:47:47;7.10;99.90
4461;DHT22;2243;48.812;9.232;2023-02-01T13:50:38;7.10;99.90
4461;DHT22;2243;48.812;9.232;2023-02-01T13:55:47;7.10;99.90
4461;DHT22;2243;48.812;9.232;2023-02-01T14:04:05;6.90;99.90
4461;DHT22;2243;48.812;9.232;2023-02-01T14:06:41;6.90;99.90
4461;DHT22;2243;48.812;9.232;2023-02-01T14:09:16;6.80;99.90
4461;DHT22;2243;48.812;9.232;2023-02-01T14:15:23;6.60;99.90
4461;DHT22;2243;48.812;9.232;2023-02-01T14:17:56;6.60;99.90
4461;DHT22;2243;48.812;9.232;2023-02-01T14:20:42;6.60;99.90
4461;DHT22;2243;48.812;9.232;2023-02-01T14:23:18;6.70;99.90
4461;DHT22;2243;48.812;9.232;2023-02-01T14:26:04;6.90;99.90
4461;DHT22;2243;48.812;9.232;2023-02-01T14:28:44;6.90;99.90
4461;DHT22;2243;48.812;9.232;2023-02-01T14:31:38;7.00;99.90
4461;DHT22;2243;48.812;9.232;2023-02-01T14:34:18;7.10;99.90
4461;DHT22;2243;48.812;9.232;2023-02-01T14:36:57;7.10;99.90
4461;DHT22;2243;48.812;9.232;2023-02-01T14:39:47;7.20;99.90
4461;DHT22;2243;48.812;9.232;2023-02-01T14:50:43;7.20;99.90
4461;DHT22;2243;48.812;9.232;2023-02-01T14:53:21;7.20;99.90
4461;DHT22;2243;48.812;9.232;2023-02-01T14:56:06;7.20;99.90
4461;DHT22;2243;48.812;9.232;2023-02-01T14:58:55;7.10;99.90
4461;DHT22;2243;48.812;9.232;2023-02-01T15:01:34;7.10;99.90
4461;DHT22;2243;48.812;9.232;2023-02-01T15:06:42;7.10;99.90
4461;DHT22;2243;48.812;9.232;2023-02-01T15:14:48;7.10;99.90
4461;DHT22;2243;48.812;9.232;2023-02-01T15:17:34;7.10;99.90
4461;DHT22;2243;48.812;9.232;2023-02-01T15:23:16;7.10;99.90
4461;DHT22;2243;48.812;9.232;2023-02-01T15:25:47;7.10;99.90
4461;DHT22;2243;48.812;9.232;2023-02-01T15:28:24;7.10;99.90
4461;DHT22;2243;48.812;9.232;2023-02-01T15:30:59;7.10;99.90
4461;DHT22;2243;48.812;9.232;2023-02-01T15:33:34;7.10;99.90
4461;DHT22;2243;48.812;9.232;2023-02-01T15:36:18;7.10;99.90
4461;DHT22;2243;48.812;9.232;2023-02-01T15:39:19;7.10;99.90
4461;DHT22;2243;48.812;9.232;2023-02-01T15:41:59;7.20;99.90
4461;DHT22;2243;48.812;9.232;2023-02-01T15:44:40;7.10;99.90
4461;DHT22;2243;48.812;9.232;2023-02-01T15:47:19;7.20;99.90
4461;DHT22;2243;48.812;9.232;2023-02-01T15:49:56;7.20;99.90
4461;DHT22;2243;48.812;9.232;2023-02-01T15:52:36;7.20;99.90
4461;DHT22;2243;48.812;9.232;2023-02-01T15:55:29;7.30;99.90
4461;DHT22;2243;48.812;9.232;2023-02-01T15:58:06;7.30;99.90
4461;DHT22;2243;48.812;9.232;2023-02-01T16:00:50;7.20;99.90
4461;DHT22;2243;48.812;9.232;2023-02-01T16:03:28;7.20;99.90
4461;DHT22;2243;48.812;9.232;2023-02-01T16:06:06;7.20;99.90
4461;DHT22;2243;48.812;9.232;2023-02-01T16:09:14;7.20;99.90
4461;DHT22;2243;48.812;9.232;2023-02-01T16:12:01;7.20;99.90
4461;DHT22;2243;48.812;9.232;2023-02-01T16:14:32;7.20;99.90
4461;DHT22;2243;48.812;9.232;2023-02-01T16:17:03;7.20;99.90
4461;DHT22;2243;48.812;9.232;2023-02-01T16:19:35;7.20;99.90
4461;DHT22;2243;48.812;9.232;2023-02-01T16:22:06;7.20;99.90
4461;DHT22;2243;48.812;9.232;2023-02-01T16:24:36;7.20;99.90
4461;DHT22;2243;48.812;9.232;2023-02-01T16:27:08;7.10;99.90
4461;DHT22;2243;48.812;9.232;2023-02-01T16:29:38;7.20;99.90
4461;DHT22;2243;48.812;9.232;2023-02-01T16:32:20;7.20;99.90
4461;DHT22;2243;48.812;9.232;2023-02-01T16:34:52;7.20;99.90
4461;DHT22;2243;48.812;9.232;2023-02-01T16:37:25;7.10;99.90
4461;DHT22;2243;48.812;9.232;2023-02-01T16:39:58;7.10;99.90
4461;DHT22;2243;48.812;9.232;2023-02-01T16:42:29;7.20;99.90
4461;DHT22;2243;48.812;9.232;2023-02-01T16:45:01;7.20;99.90
4461;DHT22;2243;48.812;9.232;2023-02-01T16:47:33;7.20;99.90
4461;DHT22;2243;48.812;9.232;2023-02-01T16:50:05;7.20;99.90
4461;DHT22;2243;48.812;9.232;2023-02-01T16:52:53;7.20;99.90
4461;DHT22;2243;48.812;9.232;2023-02-01T16:55:24;7.20;99.90
4461;DHT22;2243;48.812;9.232;2023-02-01T16:57:56;7.20;99.90
4461;DHT22;2243;48.812;9.232;2023-02-01T17:00:27;7.20;99.90
4461;DHT22;2243;48.812;9.232;2023-02-01T17:03:01;7.20;99.90
4461;DHT22;2243;48.812;9.232;2023-02-01T17:05:33;7.20;99.90
4461;DHT22;2243;48.812;9.232;2023-02-01T17:08:06;7.20;99.90
4461;DHT22;2243;48.812;9.232;2023-02-01T17:10:37;7.20;99.90
4461;DHT22;2243;48.812;9.232;2023-02-01T17:13:13;7.20;99.90
4461;DHT22;2243;48.812;9.232;2023-02-01T17:15:56;7.10;99.90
4461;DHT22;2243;48.812;9.232;2023-02-01T17:18:35;7.20;99.90
4461;DHT22;2243;48.812;9.232;2023-02-01T17:21:06;7.20;99.90
4461;DHT22;2243;48.812;9.232;2023-02-01T17:23:38;7.20;99.90
4461;DHT22;2243;48.812;9.232;2023-02-01T17:26:09;7.20;99.90
4461;DHT22;2243;48.812;9.232;2023-02-01T17:28:40;7.20;99.90
4461;DHT22;2243;48.812;9.232;2023-02-01T17:31:13;7.10;99.90
4461;DHT22;2243;48.812;9.232;2023-02-01T17:33:46;7.20;99.90
4461;DHT22;2243;48.812;9.232;2023-02-01T17:36:17;7.20;99.90
4461;DHT22;2243;48.812;9.232;2023-02-01T17:38:48;7.20;99.90
4461;DHT22;2243;48.812;9.232;2023-02-01T17:41:35;7.20;99.90
4461;DHT22;2243;48.812;9.232;2023-02-01T17:44:09;7.20;99.90
4461;DHT22;2243;48.812;9.232;2023-02-01T17:46:40;7.20;99.90
4461;DHT22;2243;48.812;9.232;2023-02-01T17:49:11;7.20;99.90
4461;DHT22;2243;48.812;9.232;2023-02-01T17:51:42;7.20;99.90
4461;DHT22;2243;48.812;9.232;2023-02-01T17:54:14;7.10;99.90
4461;DHT22;2243;48.812;9.232;2023-02-01T17:56:46;7.20;99.90
4461;DHT22;2243;48.812;9.232;2023-02-01T17:59:18;7.20;99.90
4461;DHT22;2243;48.812;9.232;2023-02-01T18:01:49;7.20;99.90
4461;DHT22;2243;48.812;9.232;2023-02-01T18:04:19;7.20;99.90
4461;DHT22;2243;48.812;9.232;2023-02-01T18:06:52;7.20;99.90
4461;DHT22;2243;48.812;9.232;2023-02-01T18:09:25;7.10;99.90
4461;DHT22;2243;48.812;9.232;2023-02-01T18:12:09;7.10;99.90
4461;DHT22;2243;48.812;9.232;2023-02-01T18:14:45;7.10;99.90
4461;DHT22;2243;48.812;9.232;2023-02-01T18:17:16;7.10;99.90
4461;DHT22;2243;48.812;9.232;2023-02-01T18:19:47;7.20;99.90
4461;DHT22;2243;48.812;9.232;2023-02-01T18:22:20;7.20;99.90
4461;DHT22;2243;48.812;9.232;2023-02-01T18:24:53;7.10;99.90
4461;DHT22;2243;48.812;9.232;2023-02-01T18:27:24;7.10;99.90
4461;DHT22;2243;48.812;9.232;2023-02-01T18:29:57;7.10;99.90
4461;DHT22;2243;48.812;9.232;2023-02-01T18:32:28;7.10;99.90
4461;DHT22;2243;48.812;9.232;2023-02-01T18:34:59;7.10;99.90
4461;DHT22;2243;48.812;9.232;2023-02-01T18:37:31;7.10;99.90
4461;DHT22;2243;48.812;9.232;2023-02-01T18:40:02;7.10;99.90
4461;DHT22;2243;48.812;9.232;2023-02-01T18:42:36;7.10;99.90
4461;DHT22;2243;48.812;9.232;2023-02-01T18:45:29;7.10;99.90
4461;DHT22;2243;48.812;9.232;2023-02-01T18:48:02;7.10;99.90
4461;DHT22;2243;48.812;9.232;2023-02-01T18:50:37;7.10;99.90
4461;DHT22;2243;48.812;9.232;2023-02-01T18:53:16;7.10;99.90
4461;DHT22;2243;48.812;9.232;2023-02-01T18:55:50;7.10;99.90
4461;DHT22;2243;48.812;9.232;2023-02-01T18:58:24;7.10;99.90
4461;DHT22;2243;48.812;9.232;2023-02-01T19:00:58;7.10;99.90
4461;DHT22;2243;48.812;9.232;2023-02-01T19:03:36;7.10;99.90
4461;DHT22;2243;48.812;9.232;2023-02-01T19:06:12;7.10;99.90
4461;DHT22;2243;48.812;9.232;2023-02-01T19:08:46;7.10;99.90
4461;DHT22;2243;48.812;9.232;2023-02-01T19:11:17;7.20;99.90
4461;DHT22;2243;48.812;9.232;2023-02-01T19:13:49;7.10;99.90
4461;DHT22;2243;48.812;9.232;2023-02-01T19:16:21;7.10;99.90
4461;DHT22;2243;48.812;9.232;2023-02-01T19:18:52;7.10;99.90
4461;DHT22;2243;48.812;9.232;2023-02-01T19:21:23;7.10;99.90
4461;DHT22;2243;48.812;9.232;2023-02-01T19:23:54;7.20;99.90
4461;DHT22;2243;48.812;9.232;2023-02-01T19:26:25;7.10;99.90
4461;DHT22;2243;48.812;9.232;2023-02-01T19:28:57;7.10;99.90